• Join FlightAware (Why Join?)
  • Login
  • US Flag 
09:48PM EDT


 

Airport Tracker/Info


-or-


 

Live Flight TrackerFlight Track Log ✈ PRY5 ✈ 02-May-2012 ✈ KFRG - KRDU

Flight Track Log - Related Links

Times and Time Zones

All times are in EDT time to prevent confusion due to time zone crossing. See the PRY5 flight status page for this flight to view local times or setup timezone preferences in your user account.

Time Position Orientation Groundspeed Altitude Reporting Facility
EDT Latitude Longitude Course Direction KTS MPH feet Rate Location/Type
02:17PM 40.6833 -73.4333 237° Southwest 124 143 2,000  Level New York TRACON
02:18PM 40.6667 -73.4667 270° West 129 148 3,300 1,260 Climbing New York TRACON
02:19PM 40.6667 -73.5000 270° West 118 136 4,600 1,200 Climbing New York TRACON
02:20PM 40.6667 -73.5500 270° West 120 138 5,600 720 Climbing New York TRACON
02:21PM 40.6667 -73.6000 246° West 152 175 6,000 120 Climbing New York TRACON
02:22PM 40.6500 -73.6500 252° West 169 194 5,900  Descending New York TRACON
02:23PM 40.6333 -73.7167 270° West 160 184 6,000  Climbing New York TRACON
02:24PM 40.6333 -73.7667 207° Southwest 148 170 6,000  Level New York TRACON
02:25PM 40.5833 -73.8000 217° Southwest 165 190 6,000  Level New York TRACON
02:26PM 40.5500 -73.8333 207° Southwest 169 194 6,000  Level New York TRACON
02:27PM 40.5000 -73.8667 217° Southwest 171 197 6,100  Climbing New York TRACON
02:28PM 40.4667 -73.9000 194° South 171 197 6,100  Level New York TRACON
02:29PM 40.4167 -73.9167 217° Southwest 172 198 6,100  Level New York TRACON
02:30PM 40.3833 -73.9500 215° Southwest 172 198 6,100 300 Level New York TRACON
02:30PM 40.3492 -73.9819 211° Southwest 173 199 6,700 840 Climbing New York Center
02:31PM 40.3194 -74.0050 204° Southwest 153 176 7,700 960 Climbing New York Center
02:32PM 40.2814 -74.0275 209° Southwest 141 162 8,600 840 Climbing New York Center
02:33PM 40.2494 -74.0506 208° Southwest 141 162 9,400 660 Climbing New York Center
02:34PM 40.2133 -74.0761 211° Southwest 146 168 10,000 300 Climbing New York Center
02:35PM 40.1683 -74.1119 210° Southwest 167 192 10,000  Level New York Center
02:36PM 40.1281 -74.1425 208° Southwest 167 192 10,000  Level New York Center
02:37PM 40.0875 -74.1706 215° Southwest 167 192 10,000  Level New York Center
02:38PM 40.0511 -74.2039 221° Southwest 172 198 10,000  Level New York Center
02:39PM 40.0167 -74.2428 216° Southwest 177 204 10,000  Level New York Center
02:40PM 39.9736 -74.2842 217° Southwest 177 204 10,000  Level New York Center
02:41PM 39.9372 -74.3200 216° Southwest 177 204 10,000  Level New York Center
02:42PM 39.8986 -74.3561 215° Southwest 182 209 10,000  Level New York Center
02:44PM 39.8369 -74.4133 218° Southwest 172 198 10,000  Level Washington Center
02:45PM 39.7997 -74.4517 215° Southwest 177 204 10,000  Level Washington Center
02:46PM 39.7606 -74.4875 217° Southwest 177 204 10,000  Level Washington Center
02:47PM 39.7214 -74.5258 215° Southwest 177 204 10,000  Level Washington Center
02:48PM 39.6819 -74.5617 213° Southwest 177 204 10,000  Level Washington Center
02:49PM 39.6406 -74.5972 217° Southwest 177 204 10,000  Level Washington Center
02:50PM 39.6014 -74.6356 217° Southwest 177 204 10,000  Level Washington Center
02:51PM 39.5619 -74.6736 216° Southwest 177 204 10,000  Level Washington Center
02:52PM 39.5247 -74.7092 217° Southwest 177 204 10,000  Level Washington Center
02:53PM 39.4856 -74.7472 217° Southwest 177 204 10,000  Level Washington Center
02:54PM 39.4461 -74.7853 214° Southwest 177 204 10,000  Level Washington Center
02:55PM 39.4047 -74.8208 217° Southwest 177 204 10,000  Level Washington Center
02:56PM 39.3653 -74.8586 217° Southwest 177 204 10,000  Level Washington Center
02:57PM 39.3261 -74.8967 215° Southwest 177 204 10,000  Level Washington Center
02:58PM 39.2867 -74.9319 215° Southwest 177 204 10,000  Level Washington Center
02:59PM 39.2450 -74.9697 233° Southwest 177 204 10,000  Level Washington Center
03:00PM 39.2183 -75.0156 238° Southwest 177 204 10,000  Level Washington Center
03:01PM 39.1936 -75.0667 238° Southwest 171 197 10,000  Level Washington Center
03:02PM 39.1686 -75.1178 237° Southwest 171 197 10,000  Level Washington Center
03:03PM 39.1439 -75.1661 236° Southwest 171 197 10,000  Level Washington Center
03:04PM 39.1211 -75.2089 238° Southwest 171 197 10,000  Level Washington Center
03:05PM 39.0961 -75.2600 236° Southwest 171 197 10,000  Level Washington Center
03:06PM 39.0692 -75.3108 238° Southwest 171 197 10,000  Level Washington Center
03:07PM 39.0444 -75.3617 234° Southwest 176 203 10,000  Level Washington Center
03:08PM 39.0172 -75.4100 234° Southwest 176 203 10,000  Level Washington Center
03:09PM 38.9903 -75.4581 240° Southwest 176 203 10,000  Level Washington Center
03:10PM 38.9675 -75.5089 236° Southwest 176 203 10,000  Level Washington Center
03:11PM 38.9425 -75.5569 236° Southwest 170 196 10,000  Level Washington Center
03:12PM 38.9175 -75.6050 238° Southwest 170 196 10,000  Level Washington Center
03:13PM 38.8925 -75.6556 236° Southwest 170 196 10,000  Level Washington Center
03:14PM 38.8675 -75.7036 234° Southwest 170 196 10,000  Level Washington Center
03:15PM 38.8403 -75.7517 235° Southwest 170 196 10,000  Level Washington Center
03:16PM 38.8131 -75.8022 236° Southwest 170 196 10,000  Level Washington Center
03:17PM 38.7881 -75.8500 234° Southwest 170 196 10,000  Level Washington Center
03:18PM 38.7608 -75.8978 236° Southwest 175 201 10,000  Level Washington Center
03:19PM 38.7356 -75.9456 240° Southwest 175 201 10,000  Level Washington Center
03:20PM 38.7125 -75.9961 221° Southwest 175 201 10,000  Level Washington Center
03:21PM 38.6789 -76.0331 215° Southwest 170 196 10,000  Level Washington Center
03:22PM 38.6372 -76.0700 217° Southwest 170 196 10,000  Level Washington Center
03:23PM 38.5994 -76.1069 218° Southwest 176 203 10,000  Level Washington Center
03:24PM 38.5575 -76.1492 219° Southwest 183 211 10,000  Level Washington Center
03:25PM 38.5242 -76.1833 217° Southwest 175 201 10,000  Level Washington Center
03:26PM 38.4864 -76.2203 214° Southwest 175 201 10,000  Level Washington Center
03:27PM 38.4467 -76.2544 217° Southwest 175 201 10,000  Level Washington Center
03:28PM 38.4089 -76.2911 215° Southwest 175 201 10,000  Level Washington Center
03:29PM 38.3711 -76.3253 218° Southwest 175 201 10,000  Level Washington Center
03:30PM 38.3314 -76.3644 209° Southwest 175 201 10,000  Level Washington Center
03:31PM 38.2872 -76.3958 223° Southwest 175 201 10,000  Level Washington Center
03:32PM 38.2517 -76.4378 232° Southwest 180 207 10,000  Level Washington Center
03:33PM 38.2242 -76.4825 231° Southwest 174 200 10,000  Level Washington Center
03:34PM 38.1944 -76.5297 226° Southwest 169 194 10,000  Level Washington Center
03:35PM 38.1608 -76.5742 226° Southwest 169 194 10,000  Level Washington Center
03:36PM 38.1292 -76.6158 226° Southwest 169 194 10,000  Level Washington Center
03:37PM 38.0975 -76.6578 226° Southwest 169 194 10,000  Level Washington Center
03:38PM 38.0658 -76.6994 228° Southwest 169 194 10,000  Level Washington Center
03:39PM 38.0364 -76.7411 226° Southwest 169 194 10,000  Level Washington Center
03:40PM 38.0047 -76.7828 230° Southwest 169 194 10,000  Level Washington Center
03:41PM 37.9750 -76.8272 211° Southwest 169 194 10,000 -60 Level Washington Center
03:42PM 37.9350 -76.8581 193° South 169 194 9,900 -60 Descending Washington Center
03:43PM 37.8828 -76.8731 200° South 179 206 9,900  Level Washington Center
03:44PM 37.8344 -76.8958 200° South 186 214 9,900  Level Washington Center
03:45PM 37.7842 -76.9186 199° South 186 214 9,900  Level Washington Center
03:46PM 37.7381 -76.9389 199° South 186 214 9,900  Level Washington Center
03:47PM 37.6919 -76.9592 198° South 186 214 9,900  Level Washington Center
03:48PM 37.6439 -76.9792 196° South 186 214 9,900  Level Washington Center
03:49PM 37.5956 -76.9967 201° Southwest 186 214 9,900  Level Washington Center
03:50PM 37.5475 -77.0194 199° South 186 214 9,900  Level Washington Center
03:51PM 37.4969 -77.0419 198° South 191 220 9,900  Level Washington Center
03:52PM 37.4531 -77.0594 201° Southwest 185 213 9,900  Level Washington Center
03:53PM 37.4111 -77.0794 198° South 185 213 10,000  Climbing Washington Center
03:54PM 37.3544 -77.1019 202° Southwest 190 219 9,900 -60 Descending Washington Center
03:55PM 37.3147 -77.1219 210° Southwest 184 212 9,900  Level Washington Center
03:56PM 37.2767 -77.1500 226° Southwest 184 212 9,900  Level Washington Center
03:57PM 37.2428 -77.1936 228° Southwest 173 199 10,000  Climbing Washington Center
03:58PM 37.2131 -77.2347 227° Southwest 167 192 9,900 -60 Descending Washington Center
03:59PM 37.1811 -77.2783 211° Southwest 167 192 9,900  Level Washington Center
04:00PM 37.1411 -77.3089 217° Southwest 172 198 9,900  Level Washington Center
04:01PM 37.1031 -77.3444 217° Southwest 172 198 9,900  Level Washington Center
04:02PM 37.0650 -77.3800 215° Southwest 177 204 9,900  Level Washington Center
04:03PM 37.0247 -77.4156 217° Southwest 177 204 9,900  Level Washington Center
04:04PM 36.9867 -77.4511 215° Southwest 177 204 9,900  Level Washington Center
04:05PM 36.9486 -77.4839 217° Southwest 177 204 9,900  Level Washington Center
04:06PM 36.9061 -77.5244 213° Southwest 177 204 9,900  Level Washington Center
04:07PM 36.8661 -77.5572 215° Southwest 177 204 9,900  Level Washington Center
04:08PM 36.8281 -77.5900 216° Southwest 171 197 9,900  Level Washington Center
04:09PM 36.7897 -77.6253 216° Southwest 171 197 9,900  Level Washington Center
04:10PM 36.7536 -77.6581 213° Southwest 171 197 9,900  Level Washington Center
04:11PM 36.7136 -77.6906 216° Southwest 176 203 9,900  Level Washington Center
04:12PM 36.6775 -77.7233 214° Southwest 176 203 10,000  Climbing Washington Center
04:13PM 36.6394 -77.7558 218° Southwest 176 203 9,900 -60 Descending Washington Center
04:14PM 36.6011 -77.7936 214° Southwest 176 203 9,900  Level Washington Center
04:15PM 36.5650 -77.8236 217° Southwest 176 203 9,900  Level Washington Center
04:16PM 36.5269 -77.8589 214° Southwest 176 203 9,900 -240 Level Washington Center
04:17PM 36.4886 -77.8914 213° Southwest 176 203 9,500 -720 Descending Washington Center
04:18PM 36.4464 -77.9261 218° Southwest 176 203 8,500 -840 Descending Washington Center
04:19PM 36.4058 -77.9661 211° Southwest 183 211 7,800 -660 Descending Washington Center
04:20PM 36.3825 -77.9836 217° Southwest 181 208 7,500 -840 Descending Washington Center
04:20PM 36.3506 -78.0136 210° Southwest 179 206 6,800 -960 Descending Washington Center
04:21PM 36.3231 -78.0333 218° Southwest 183 211 6,100 -840 Descending Washington Center
04:22PM 36.2892 -78.0658 215° Southwest 183 211 5,400 -780 Descending Washington Center
04:23PM 36.2486 -78.1006 215° Southwest 178 205 4,600 -720 Descending Washington Center
04:24PM 36.2061 -78.1378 216° Southwest 178 205 4,000 -300 Descending Washington Center
04:25PM 36.1681 -78.1725 237° Southwest 178 205 4,000  Level Washington Center
04:26PM 36.1439 -78.2181 240° Southwest 166 191 4,100  Climbing Washington Center
04:27PM 36.1242 -78.2611 240° Southwest 166 191 4,000 -60 Descending Washington Center
04:28PM 36.0981 -78.3169 240° Southwest 166 191 4,000  Level Washington Center
04:29PM 36.0781 -78.3600 243° Southwest 166 191 4,000  Level Washington Center
04:30PM 36.0628 -78.3978 237° Southwest 162 186 4,000 -180 Level Washington Center
04:31PM 36.0386 -78.4433 237° Southwest 161 185 3,800 -480 Descending Washington Center
04:31PM 36.0189 -78.4811 243° Southwest 168 193 3,200 -840 Descending Washington Center
04:33PM 35.9944 -78.5417 249° West 167 192 2,300 -540 Descending Washington Center
04:34PM 35.9786 -78.5925 252° West 163 188 2,100 -60 Descending Washington Center
04:35PM 35.9650 -78.6433 239° Southwest 156 180 2,200 -60 Climbing Washington Center
04:36PM 35.9428 -78.6886 238° Southwest 160 184 2,000 -300 Descending Washington Center
04:37PM 35.9208 -78.7314 218° Southwest 146 168 1,700 -480 Descending Washington Center
04:38PM 35.8931 -78.7586 218° Southwest 131 151 1,100 -720 Descending Washington Center